createdAt,value
2023-03-20T00:00:48.648Z,99.90
2023-03-20T00:03:18.026Z,99.90
2023-03-20T00:05:46.237Z,99.90
2023-03-20T00:08:14.192Z,99.90
2023-03-20T00:10:44.825Z,99.90
2023-03-20T00:13:26.004Z,99.90
2023-03-20T00:15:54.675Z,99.90
2023-03-20T00:18:26.555Z,99.90
2023-03-20T00:20:54.587Z,99.90
2023-03-20T00:23:22.676Z,99.90
2023-03-20T00:25:51.250Z,99.90
2023-03-20T00:28:40.679Z,99.90
2023-03-20T00:31:22.215Z,99.90
2023-03-20T00:33:51.856Z,99.90
2023-03-20T00:36:19.843Z,99.90
2023-03-20T00:38:47.888Z,99.90
2023-03-20T00:41:25.336Z,99.90
2023-03-20T00:43:56.948Z,99.90
2023-03-20T00:46:25.510Z,99.90
2023-03-20T00:48:55.921Z,99.90
2023-03-20T00:51:23.958Z,99.90
2023-03-20T00:53:52.017Z,99.90
2023-03-20T00:56:32.752Z,99.90
2023-03-20T00:59:02.394Z,99.90
2023-03-20T01:01:32.010Z,99.90
2023-03-20T01:04:01.930Z,99.90
2023-03-20T01:06:31.320Z,99.90
2023-03-20T01:09:00.032Z,99.90
2023-03-20T01:11:28.683Z,99.90
2023-03-20T01:13:57.217Z,99.90
2023-03-20T01:16:27.136Z,99.90
2023-03-20T01:18:56.679Z,99.90
2023-03-20T01:21:26.398Z,99.90
2023-03-20T01:23:54.359Z,99.90
2023-03-20T01:26:28.556Z,99.90
2023-03-20T01:28:56.739Z,99.90
2023-03-20T01:31:24.748Z,99.90
2023-03-20T01:33:52.694Z,99.90
2023-03-20T01:36:25.133Z,99.90
2023-03-20T01:38:58.405Z,99.90
2023-03-20T01:41:27.728Z,99.90
2023-03-20T01:43:55.894Z,99.90
2023-03-20T01:46:28.371Z,99.90
2023-03-20T01:49:08.517Z,99.90
2023-03-20T01:51:37.850Z,99.90
2023-03-20T01:54:12.075Z,99.90
2023-03-20T01:56:46.308Z,99.90
2023-03-20T01:59:18.706Z,99.90
2023-03-20T02:01:47.603Z,99.90
2023-03-20T02:04:16.931Z,99.90
2023-03-20T02:06:46.776Z,99.90
2023-03-20T02:09:14.758Z,99.90
2023-03-20T02:11:44.856Z,99.90
2023-03-20T02:14:14.888Z,99.90
2023-03-20T02:16:43.004Z,99.90
2023-03-20T02:19:24.703Z,99.90
2023-03-20T02:22:46.129Z,99.90
2023-03-20T02:25:53.574Z,99.90
2023-03-20T02:29:35.661Z,99.90
2023-03-20T02:32:50.659Z,99.90
2023-03-20T02:36:07.602Z,99.90
2023-03-20T02:39:03.359Z,99.90
2023-03-20T02:41:37.995Z,99.90
2023-03-20T02:44:12.024Z,99.90
2023-03-20T02:46:48.097Z,99.90
2023-03-20T02:49:26.754Z,99.90
2023-03-20T02:52:05.142Z,99.90
2023-03-20T02:54:42.456Z,99.90
2023-03-20T02:57:20.536Z,99.90
2023-03-20T02:59:57.834Z,99.90
2023-03-20T03:02:35.596Z,99.90
2023-03-20T03:05:08.283Z,99.90
2023-03-20T03:07:38.075Z,99.90
2023-03-20T03:10:12.897Z,99.90
2023-03-20T03:12:45.939Z,99.90
2023-03-20T03:15:19.247Z,99.90
2023-03-20T03:17:50.520Z,99.90
2023-03-20T03:20:25.149Z,99.90
2023-03-20T03:22:53.274Z,99.90
2023-03-20T03:25:28.549Z,99.90
2023-03-20T03:28:04.466Z,99.90
2023-03-20T03:30:36.889Z,99.90
2023-03-20T03:33:21.066Z,99.90
2023-03-20T03:35:50.881Z,99.90
2023-03-20T03:38:30.475Z,99.90
2023-03-20T03:41:19.098Z,99.90
2023-03-20T03:43:57.717Z,99.90
2023-03-20T03:46:34.110Z,99.90
2023-03-20T03:49:04.929Z,99.90
2023-03-20T03:51:36.205Z,99.90
2023-03-20T03:54:10.187Z,99.90
2023-03-20T03:56:42.342Z,99.90
2023-03-20T03:59:14.982Z,99.90
2023-03-20T04:01:44.858Z,99.90
2023-03-20T04:04:17.166Z,99.90
2023-03-20T04:06:45.233Z,99.90
2023-03-20T04:09:13.210Z,99.90
2023-03-20T04:11:42.542Z,99.90
2023-03-20T04:14:11.542Z,99.90
2023-03-20T04:16:39.579Z,99.90
2023-03-20T04:19:07.619Z,99.90
2023-03-20T04:21:35.646Z,99.90
2023-03-20T04:24:03.754Z,99.90
2023-03-20T04:26:31.911Z,99.90
2023-03-20T04:29:01.654Z,99.90
2023-03-20T04:31:29.701Z,99.90
2023-03-20T04:33:57.774Z,99.90
2023-03-20T04:36:25.751Z,99.90
2023-03-20T04:38:56.338Z,99.90
2023-03-20T04:41:25.483Z,99.90
2023-03-20T04:43:53.463Z,99.90
2023-03-20T04:46:23.042Z,99.90
2023-03-20T04:48:51.099Z,99.90
2023-03-20T04:51:19.080Z,99.90
2023-03-20T04:53:47.845Z,99.90
2023-03-20T04:56:15.890Z,99.90
2023-03-20T04:58:43.891Z,99.90
2023-03-20T05:01:11.928Z,99.90
2023-03-20T05:03:41.410Z,99.90
2023-03-20T05:06:10.489Z,99.90
2023-03-20T05:08:38.478Z,99.90
2023-03-20T05:11:07.740Z,99.90
2023-03-20T05:13:35.749Z,99.90
2023-03-20T05:16:03.785Z,99.90
2023-03-20T05:18:31.895Z,99.90
2023-03-20T05:21:01.303Z,99.90
2023-03-20T05:23:29.356Z,99.90
2023-03-20T05:25:57.427Z,99.90
2023-03-20T05:28:25.573Z,99.90
2023-03-20T05:30:53.608Z,99.90
2023-03-20T05:33:21.812Z,99.90
2023-03-20T05:35:49.998Z,99.90
2023-03-20T05:38:22.563Z,99.90
2023-03-20T05:40:51.170Z,99.90
2023-03-20T05:43:19.156Z,99.90
2023-03-20T05:45:47.197Z,99.90
2023-03-20T05:48:15.456Z,99.90
2023-03-20T05:50:43.970Z,99.90
2023-03-20T05:53:12.041Z,99.90
2023-03-20T05:55:42.017Z,99.90
2023-03-20T05:58:10.062Z,99.90
2023-03-20T06:00:38.068Z,99.90
2023-03-20T06:03:07.757Z,99.90
2023-03-20T06:05:36.603Z,99.90
2023-03-20T06:08:06.003Z,99.90
2023-03-20T06:10:33.981Z,99.90
2023-03-20T06:13:03.703Z,99.90
2023-03-20T06:15:32.291Z,99.90
2023-03-20T06:18:00.378Z,99.90
2023-03-20T06:20:28.496Z,99.90
2023-03-20T06:22:56.509Z,99.90
2023-03-20T06:25:24.502Z,99.90
2023-03-20T06:27:52.539Z,99.90
2023-03-20T06:30:22.093Z,99.90
2023-03-20T06:32:51.002Z,99.90
2023-03-20T06:35:19.534Z,99.90
2023-03-20T06:37:47.749Z,99.90
2023-03-20T06:40:15.826Z,99.90
2023-03-20T06:42:43.821Z,99.90
2023-03-20T06:45:13.205Z,99.90
2023-03-20T06:47:42.724Z,99.90
2023-03-20T06:50:12.807Z,99.90
2023-03-20T06:52:40.934Z,99.90
2023-03-20T06:55:09.885Z,99.90
2023-03-20T06:57:38.073Z,99.90
2023-03-20T07:00:08.086Z,99.90
2023-03-20T07:02:36.179Z,99.90
2023-03-20T07:05:06.930Z,99.90
2023-03-20T07:07:34.915Z,99.90
2023-03-20T07:10:04.439Z,99.90
2023-03-20T07:12:32.417Z,99.90
2023-03-20T07:15:00.488Z,99.90
2023-03-20T07:17:28.507Z,99.90
2023-03-20T07:19:56.698Z,99.90
2023-03-20T07:22:28.387Z,99.90
2023-03-20T07:24:56.996Z,99.90
2023-03-20T07:27:25.267Z,99.90
2023-03-20T07:29:53.330Z,99.90
2023-03-20T07:32:21.690Z,99.90
2023-03-20T07:34:50.262Z,99.90
2023-03-20T07:37:18.379Z,99.90
2023-03-20T07:39:47.768Z,99.90
2023-03-20T07:42:16.095Z,99.90
2023-03-20T07:44:44.115Z,99.90
2023-03-20T07:47:12.147Z,99.90
2023-03-20T07:49:41.408Z,99.90
2023-03-20T07:52:09.823Z,99.90
2023-03-20T07:54:37.847Z,99.90
2023-03-20T07:57:07.509Z,99.90
2023-03-20T07:59:35.597Z,99.90
2023-03-20T08:02:03.555Z,99.90
2023-03-20T08:04:31.537Z,99.90
2023-03-20T08:06:59.792Z,99.90
2023-03-20T08:09:28.026Z,99.90
2023-03-20T08:11:56.069Z,99.90
2023-03-20T08:14:25.744Z,99.90
2023-03-20T08:17:10.177Z,99.90
2023-03-20T08:19:41.509Z,99.90
2023-03-20T08:22:09.481Z,99.90
2023-03-20T08:24:37.467Z,99.90
2023-03-20T08:27:06.023Z,99.90
2023-03-20T08:29:35.723Z,99.90
2023-03-20T08:32:03.740Z,99.90
2023-03-20T08:34:33.492Z,99.90
2023-03-20T08:37:03.836Z,99.90
2023-03-20T08:39:33.121Z,99.90
2023-03-20T08:42:01.413Z,99.90
2023-03-20T08:44:29.802Z,99.90
2023-03-20T08:46:59.616Z,99.90
2023-03-20T08:49:27.981Z,99.90
2023-03-20T08:51:56.046Z,99.90
2023-03-20T08:54:24.271Z,99.90
2023-03-20T08:56:52.294Z,99.90
2023-03-20T08:59:21.099Z,99.90
2023-03-20T09:01:50.517Z,99.90
2023-03-20T09:04:20.174Z,99.90
2023-03-20T09:06:48.223Z,99.90
2023-03-20T09:09:18.558Z,99.90
2023-03-20T09:11:46.857Z,99.90
2023-03-20T09:14:14.978Z,99.90
2023-03-20T09:16:43.126Z,99.90
2023-03-20T09:19:13.788Z,99.90
2023-03-20T09:21:43.165Z,99.90
2023-03-20T09:24:11.500Z,99.90
2023-03-20T09:26:40.477Z,99.90
2023-03-20T09:29:08.499Z,99.90
2023-03-20T09:31:36.525Z,99.90
2023-03-20T09:34:04.701Z,99.90
2023-03-20T09:36:32.739Z,99.90
2023-03-20T09:39:02.236Z,99.90
2023-03-20T09:41:45.824Z,99.90
2023-03-20T09:44:35.443Z,99.90
2023-03-20T09:47:20.303Z,99.90
2023-03-20T09:50:01.064Z,99.90
2023-03-20T09:52:33.719Z,99.90
2023-03-20T09:55:11.384Z,99.90
2023-03-20T09:57:42.983Z,99.90
2023-03-20T10:00:17.516Z,99.90
2023-03-20T10:02:51.880Z,99.90
2023-03-20T10:05:25.702Z,99.90
2023-03-20T10:07:57.356Z,99.90
2023-03-20T10:10:37.098Z,99.90
2023-03-20T10:13:36.998Z,99.90
2023-03-20T10:16:16.724Z,99.90
2023-03-20T10:18:51.427Z,99.90
2023-03-20T10:21:27.235Z,99.90
2023-03-20T10:24:03.325Z,99.90
2023-03-20T10:26:36.817Z,99.90
2023-03-20T10:29:15.716Z,99.90
2023-03-20T10:31:52.004Z,99.90
2023-03-20T10:34:39.765Z,99.90
2023-03-20T10:37:24.603Z,99.90
2023-03-20T10:40:04.177Z,99.90
2023-03-20T10:42:38.898Z,99.90
2023-03-20T10:45:19.635Z,99.90
2023-03-20T10:47:52.648Z,99.90
2023-03-20T10:50:25.165Z,99.90
2023-03-20T10:52:55.448Z,99.90
2023-03-20T10:55:29.472Z,99.90
2023-03-20T10:58:04.854Z,99.90
2023-03-20T11:00:34.049Z,99.90
2023-03-20T11:03:02.256Z,99.90
2023-03-20T11:05:34.132Z,99.90
2023-03-20T11:08:05.792Z,99.90
2023-03-20T11:10:36.602Z,99.90
2023-03-20T11:13:19.365Z,99.90
2023-03-20T11:15:47.451Z,99.90
2023-03-20T11:18:17.102Z,99.90
2023-03-20T11:20:50.116Z,99.90
2023-03-20T11:23:21.406Z,99.90
2023-03-20T11:25:54.634Z,99.90
2023-03-20T11:28:32.609Z,99.90
2023-03-20T11:31:05.643Z,99.90
2023-03-20T11:33:38.719Z,99.30
2023-03-20T11:36:22.397Z,97.30
2023-03-20T11:38:52.056Z,97.70
2023-03-20T11:41:25.633Z,96.80
2023-03-20T11:43:55.694Z,97.50
2023-03-20T11:46:25.788Z,93.00
2023-03-20T11:49:07.688Z,93.10
2023-03-20T11:51:38.104Z,90.80
2023-03-20T11:54:08.918Z,92.20
2023-03-20T11:56:37.918Z,89.70
2023-03-20T11:59:15.441Z,88.60
2023-03-20T12:01:47.221Z,89.20
2023-03-20T12:04:18.989Z,89.70
2023-03-20T12:06:54.060Z,90.60
2023-03-20T12:09:39.141Z,90.40
2023-03-20T12:12:16.641Z,89.90
2023-03-20T12:14:55.604Z,90.00
2023-03-20T12:17:39.344Z,90.40
2023-03-20T12:20:22.419Z,89.10
2023-03-20T12:22:57.920Z,88.50
2023-03-20T12:25:28.482Z,89.30
2023-03-20T12:28:04.475Z,89.50
2023-03-20T12:30:50.445Z,87.10
2023-03-20T12:33:29.717Z,88.40
2023-03-20T12:35:59.512Z,88.70
2023-03-20T12:38:31.032Z,89.40
2023-03-20T12:41:11.485Z,88.20
2023-03-20T12:44:15.037Z,87.10
2023-03-20T12:46:49.447Z,87.10
2023-03-20T12:49:39.320Z,86.10
2023-03-20T12:52:17.160Z,89.30
2023-03-20T12:55:25.974Z,86.80
2023-03-20T12:58:07.483Z,89.80
2023-03-20T13:00:40.373Z,90.70
2023-03-20T13:03:29.351Z,89.30
2023-03-20T13:06:04.333Z,88.70
2023-03-20T13:08:48.549Z,89.30
2023-03-20T13:11:26.060Z,87.80
2023-03-20T13:13:58.052Z,88.60
2023-03-20T13:16:41.133Z,87.20
2023-03-20T13:19:23.415Z,88.60
2023-03-20T13:21:59.673Z,90.30
2023-03-20T13:24:44.907Z,89.20
2023-03-20T13:27:28.200Z,89.10
2023-03-20T13:30:03.099Z,90.80
2023-03-20T13:32:48.147Z,90.60
2023-03-20T13:35:29.669Z,91.10
2023-03-20T13:38:00.494Z,90.00
2023-03-20T13:40:31.357Z,88.40
2023-03-20T13:43:22.379Z,89.00
2023-03-20T13:45:53.254Z,90.30
2023-03-20T13:48:30.852Z,90.20
2023-03-20T13:51:13.010Z,90.90
2023-03-20T13:53:54.694Z,90.80
2023-03-20T13:56:34.427Z,90.70
2023-03-20T13:59:35.709Z,90.00
2023-03-20T14:02:20.875Z,90.20
2023-03-20T14:04:52.839Z,91.10
2023-03-20T14:07:35.418Z,90.50
2023-03-20T14:10:40.389Z,84.40
2023-03-20T14:13:15.847Z,87.70
2023-03-20T14:15:54.274Z,83.90
2023-03-20T14:18:26.347Z,83.20
2023-03-20T14:21:00.702Z,83.40
2023-03-20T14:23:44.300Z,81.50
2023-03-20T14:26:21.781Z,81.80
2023-03-20T14:29:01.082Z,83.20
2023-03-20T14:31:34.105Z,81.90
2023-03-20T14:34:16.705Z,79.20
2023-03-20T14:36:59.470Z,79.30
2023-03-20T14:39:49.590Z,79.60
2023-03-20T14:42:38.426Z,80.10
2023-03-20T14:45:38.928Z,73.90
2023-03-20T14:48:18.226Z,74.10
2023-03-20T14:51:05.400Z,73.20
2023-03-20T14:53:34.094Z,74.60
2023-03-20T14:56:13.062Z,73.80
2023-03-20T14:58:53.360Z,74.10
2023-03-20T15:01:48.208Z,73.70
2023-03-20T15:04:35.122Z,74.60
2023-03-20T15:07:08.157Z,73.70
2023-03-20T15:09:40.974Z,75.20
2023-03-20T15:12:13.473Z,78.40
2023-03-20T15:14:45.603Z,78.90
2023-03-20T15:17:21.174Z,78.40
2023-03-20T15:19:49.865Z,78.20
2023-03-20T15:22:21.706Z,79.70
2023-03-20T15:24:55.803Z,78.70
2023-03-20T15:27:30.200Z,79.00
2023-03-20T15:30:01.483Z,79.30
2023-03-20T15:32:30.012Z,80.80
2023-03-20T15:34:58.107Z,80.70
2023-03-20T15:37:28.166Z,81.20
2023-03-20T15:39:59.074Z,81.10
2023-03-20T15:42:28.833Z,81.70
2023-03-20T15:44:57.770Z,82.00
2023-03-20T15:47:26.758Z,83.90
2023-03-20T15:49:57.371Z,81.50
2023-03-20T15:52:33.117Z,80.10
2023-03-20T15:55:06.085Z,81.10
2023-03-20T15:57:38.133Z,82.10
2023-03-20T16:00:11.178Z,82.90
2023-03-20T16:02:39.613Z,82.30
2023-03-20T16:05:15.158Z,84.30
2023-03-20T16:07:43.586Z,82.70
2023-03-20T16:10:19.552Z,84.60
2023-03-20T16:12:51.277Z,84.40
2023-03-20T16:15:21.252Z,84.60
2023-03-20T16:17:52.969Z,83.90
2023-03-20T16:20:21.643Z,84.00
2023-03-20T16:22:51.053Z,83.00
2023-03-20T16:25:20.657Z,83.70
2023-03-20T16:27:52.734Z,84.80
2023-03-20T16:30:26.966Z,84.50
2023-03-20T16:33:01.694Z,85.50
2023-03-20T16:35:38.408Z,85.70
2023-03-20T16:38:22.207Z,85.10
2023-03-20T16:40:53.972Z,85.30
2023-03-20T16:43:29.153Z,86.90
2023-03-20T16:46:04.304Z,88.00
2023-03-20T16:48:34.160Z,87.80
2023-03-20T16:51:07.564Z,88.00
2023-03-20T16:53:42.651Z,87.80
2023-03-20T16:56:14.734Z,87.80
2023-03-20T16:58:46.354Z,88.00
2023-03-20T17:01:19.790Z,88.70
2023-03-20T17:03:52.239Z,90.10
2023-03-20T17:06:45.844Z,89.10
2023-03-20T17:09:25.412Z,89.70
2023-03-20T17:12:03.282Z,90.70
2023-03-20T17:14:32.996Z,90.20
2023-03-20T17:17:01.088Z,90.10
2023-03-20T17:19:29.072Z,90.40
2023-03-20T17:21:57.686Z,90.40
2023-03-20T17:24:27.117Z,90.70
2023-03-20T17:26:57.934Z,91.10
2023-03-20T17:29:28.191Z,91.10
2023-03-20T17:32:00.708Z,91.70
2023-03-20T17:34:30.607Z,91.20
2023-03-20T17:37:01.914Z,91.30
2023-03-20T17:39:31.794Z,91.60
2023-03-20T17:42:01.474Z,91.70
2023-03-20T17:44:30.613Z,91.90
2023-03-20T17:47:01.214Z,91.80
2023-03-20T17:49:31.268Z,92.10
2023-03-20T17:52:00.844Z,92.50
2023-03-20T17:54:30.119Z,93.00
2023-03-20T17:56:58.626Z,92.90
2023-03-20T17:59:31.123Z,92.70
2023-03-20T18:02:01.672Z,93.00
2023-03-20T18:04:30.863Z,93.00
2023-03-20T18:06:59.737Z,92.80
2023-03-20T18:09:30.846Z,92.60
2023-03-20T18:11:59.293Z,92.60
2023-03-20T18:14:29.390Z,93.50
2023-03-20T18:16:58.894Z,93.70
2023-03-20T18:19:30.596Z,94.80
2023-03-20T18:21:59.138Z,96.50
2023-03-20T18:24:28.219Z,96.90
2023-03-20T18:26:59.053Z,97.20
2023-03-20T18:29:27.419Z,97.40
2023-03-20T18:31:55.726Z,98.00
2023-03-20T18:34:23.717Z,98.50
2023-03-20T18:36:54.254Z,99.00
2023-03-20T18:39:25.323Z,98.70
2023-03-20T18:41:53.963Z,99.00
2023-03-20T18:44:22.782Z,99.60
2023-03-20T18:46:51.647Z,99.60
2023-03-20T18:49:22.142Z,99.90
2023-03-20T18:51:53.528Z,99.90
2023-03-20T18:54:21.768Z,99.90
2023-03-20T18:56:52.557Z,99.90
2023-03-20T18:59:22.830Z,99.90
2023-03-20T19:01:53.145Z,99.90
2023-03-20T19:04:23.614Z,99.90
2023-03-20T19:06:53.088Z,99.90
2023-03-20T19:09:21.690Z,99.90
2023-03-20T19:11:49.854Z,99.90
2023-03-20T19:14:19.488Z,99.90
2023-03-20T19:16:48.144Z,99.90
2023-03-20T19:19:17.641Z,99.90
2023-03-20T19:21:46.299Z,99.90
2023-03-20T19:24:18.167Z,99.90
2023-03-20T19:26:46.566Z,99.90
2023-03-20T19:29:14.837Z,99.90
2023-03-20T19:31:43.585Z,99.90
2023-03-20T19:34:36.885Z,99.90
2023-03-20T19:37:00.360Z,99.90
2023-03-20T19:39:31.320Z,99.90
2023-03-20T19:42:15.613Z,99.90
2023-03-20T19:44:49.336Z,99.90
2023-03-20T19:47:18.681Z,99.90
2023-03-20T19:49:47.020Z,99.90
2023-03-20T19:52:28.005Z,99.90
2023-03-20T19:55:03.044Z,99.90
2023-03-20T19:57:32.262Z,99.90
2023-03-20T20:00:50.594Z,99.90
2023-03-20T20:02:49.099Z,99.90
2023-03-20T20:05:23.972Z,99.90
2023-03-20T20:08:24.218Z,99.90
2023-03-20T20:10:45.379Z,99.90
2023-03-20T20:13:19.211Z,99.90
2023-03-20T20:15:48.682Z,99.90
2023-03-20T20:18:18.579Z,99.90
2023-03-20T20:21:37.534Z,99.90
2023-03-20T20:23:39.091Z,99.90
2023-03-20T20:26:09.590Z,99.90
2023-03-20T20:28:37.710Z,99.90
2023-03-20T20:31:06.487Z,99.90
2023-03-20T20:33:36.762Z,99.90
2023-03-20T20:39:03.852Z,99.90
2023-03-20T20:41:33.633Z,99.90
2023-03-20T20:44:15.565Z,99.90
2023-03-20T20:46:44.752Z,99.90
2023-03-20T20:49:19.453Z,99.90
2023-03-20T20:51:48.769Z,99.90
2023-03-20T20:54:17.714Z,99.90
2023-03-20T20:56:47.551Z,99.90
2023-03-20T20:59:17.074Z,99.90
2023-03-20T21:01:45.954Z,99.90
2023-03-20T21:04:14.210Z,99.90
2023-03-20T21:09:31.534Z,99.90
2023-03-20T21:12:02.677Z,99.90
2023-03-20T21:14:31.266Z,99.90
2023-03-20T21:17:01.837Z,99.90
2023-03-20T21:19:32.514Z,99.90
2023-03-20T21:22:00.868Z,99.90
2023-03-20T21:24:33.826Z,99.90
2023-03-20T21:27:08.514Z,99.90
2023-03-20T21:29:36.767Z,99.90
2023-03-20T21:32:07.142Z,99.90
2023-03-20T21:34:38.371Z,99.90
2023-03-20T21:38:15.797Z,99.90
2023-03-20T21:39:59.326Z,99.90
2023-03-20T21:42:29.821Z,99.90
2023-03-20T21:45:56.096Z,99.90
2023-03-20T21:48:25.217Z,99.90
2023-03-20T21:51:02.886Z,99.90
2023-03-20T21:54:24.452Z,99.90
2023-03-20T21:56:57.236Z,99.90
2023-03-20T22:02:13.858Z,99.90
2023-03-20T22:05:34.557Z,99.90
2023-03-20T22:08:09.540Z,99.90
2023-03-20T22:14:10.225Z,99.90
2023-03-20T22:25:16.615Z,99.90
2023-03-20T22:28:00.798Z,99.90
2023-03-20T22:33:58.713Z,99.90
2023-03-20T22:47:08.904Z,99.90
2023-03-20T22:49:38.416Z,99.90
2023-03-20T22:52:20.009Z,99.90
2023-03-20T22:54:52.802Z,99.90
2023-03-20T22:57:20.820Z,99.90
2023-03-20T22:59:48.792Z,99.90
2023-03-20T23:02:16.794Z,99.90
2023-03-20T23:04:46.096Z,99.90
2023-03-20T23:07:14.107Z,99.90
2023-03-20T23:09:42.148Z,99.90
2023-03-20T23:12:10.787Z,99.90
2023-03-20T23:14:45.799Z,99.90
2023-03-20T23:17:14.394Z,99.90
2023-03-20T23:19:49.220Z,99.90
2023-03-20T23:22:21.582Z,99.90
2023-03-20T23:24:50.216Z,99.90
2023-03-20T23:27:20.129Z,99.90
2023-03-20T23:29:48.112Z,99.90
2023-03-20T23:32:16.547Z,99.90
2023-03-20T23:34:44.577Z,99.90
2023-03-20T23:37:12.654Z,99.90
2023-03-20T23:39:42.256Z,99.90
2023-03-20T23:42:27.651Z,99.90
2023-03-20T23:45:04.317Z,99.90
2023-03-20T23:47:44.334Z,99.90
2023-03-20T23:50:26.333Z,99.90
2023-03-20T23:53:06.349Z,99.90
2023-03-20T23:55:44.506Z,99.90
2023-03-20T23:58:13.705Z,99.90
